Time;durP1;ratioP1;P1;durP2;ratioP2;P2;SDS_P1;SDS_P2;PMS_P1;PMS_P2;Temp;Humidity;BMP_temperature;BMP_pressure;BME280_temperature;BME280_humidity;BME280_pressure;Samples;Min_cycle;Max_cycle;Signal;HPM_P1;HPM_P2
2023/03/25 00:02:04;;;;;;;12.15;5.28;;;10.60;99.90;;;;;;6306031;22;20476;-88
2023/03/25 00:04:39;;;;;;;15.53;4.27;;;10.20;99.90;;;;;;6307061;22;20096;-89
2023/03/25 00:10:30;;;;;;;10.63;2.70;;;9.20;99.90;;;;;;6307548;22;20030;-88
2023/03/25 00:13:53;;;;;;;10.17;2.70;;;9.60;99.90;;;;;;6306889;22;20051;-90
2023/03/25 00:20:22;;;;;;;9.97;2.63;;;8.70;99.90;;;;;;6311188;22;20320;-88
2023/03/25 00:23:09;;;;;;;10.03;3.40;;;9.00;99.90;;;;;;6308029;22;20018;-88
2023/03/25 00:25:37;;;;;;;11.38;3.00;;;8.90;99.90;;;;;;6306950;22;20019;-89
2023/03/25 00:28:13;;;;;;;11.98;3.95;;;10.10;99.90;;;;;;6305982;22;20506;-88
2023/03/25 00:30:52;;;;;;;12.80;3.45;;;8.90;99.90;;;;;;6306018;22;20037;-87
2023/03/25 00:33:34;;;;;;;10.67;3.20;;;9.70;99.90;;;;;;6305700;22;20080;-88
2023/03/25 00:36:00;;;;;;;10.35;3.40;;;10.50;99.90;;;;;;6305022;22;20054;-87
2023/03/25 00:38:53;;;;;;;13.40;4.20;;;9.00;99.90;;;;;;6307833;22;20061;-87
2023/03/25 00:41:42;;;;;;;10.77;4.20;;;9.90;99.90;;;;;;6322252;22;20059;-87
2023/03/25 00:44:23;;;;;;;10.80;3.67;;;9.10;99.90;;;;;;6315148;22;20016;-88
2023/03/25 00:46:49;;;;;;;9.87;3.90;;;10.30;99.90;;;;;;6309285;22;20042;-87
2023/03/25 00:49:27;;;;;;;10.60;3.80;;;10.10;99.90;;;;;;6304700;22;20027;-88
2023/03/25 00:52:43;;;;;;;13.50;4.30;;;10.40;99.90;;;;;;6310861;22;20026;-88
2023/03/25 00:55:10;;;;;;;14.00;4.37;;;9.10;99.90;;;;;;6310523;22;20401;-88
2023/03/25 00:57:50;;;;;;;13.80;4.63;;;8.90;99.90;;;;;;6310484;22;20015;-88
2023/03/25 01:00:18;;;;;;;11.67;4.43;;;9.10;99.90;;;;;;6342511;22;20026;-88
2023/03/25 01:02:57;;;;;;;14.40;4.80;;;9.00;99.90;;;;;;6315093;22;20430;-87
2023/03/25 01:05:40;;;;;;;11.75;4.88;;;9.00;99.90;;;;;;6339127;22;20019;-88
2023/03/25 01:08:16;;;;;;;12.57;4.40;;;10.30;99.90;;;;;;6317324;22;20116;-88
2023/03/25 01:10:48;;;;;;;11.43;4.27;;;10.00;99.90;;;;;;6345421;22;20272;-88
2023/03/25 01:13:34;;;;;;;11.77;4.27;;;10.00;99.90;;;;;;6340916;22;20017;-88
2023/03/25 01:16:00;;;;;;;10.10;4.13;;;7.90;99.90;;;;;;6311075;22;20010;-87
2023/03/25 01:18:38;;;;;;;12.27;4.30;;;9.00;99.90;;;;;;6338571;22;20512;-88
2023/03/25 01:21:17;;;;;;;12.37;4.20;;;10.40;99.90;;;;;;6310615;22;20025;-88
2023/03/25 01:23:42;;;;;;;10.60;4.03;;;10.00;99.90;;;;;;6308924;22;20057;-88
2023/03/25 01:26:24;;;;;;;13.03;3.93;;;9.00;99.90;;;;;;6305379;22;20021;-87
2023/03/25 01:29:40;;;;;;;12.63;3.80;;;8.90;99.90;;;;;;6307689;22;20095;-88
2023/03/25 01:32:57;;;;;;;12.47;4.10;;;8.60;99.90;;;;;;6303955;22;20015;-87
2023/03/25 01:35:48;;;;;;;10.10;4.10;;;8.90;99.90;;;;;;6305452;22;20104;-88
2023/03/25 01:38:40;;;;;;;11.57;3.90;;;8.90;99.90;;;;;;6304547;22;20016;-87
2023/03/25 01:41:21;;;;;;;13.37;4.03;;;8.90;99.90;;;;;;6305159;22;20027;-88
2023/03/25 01:44:11;;;;;;;;;;;9.00;99.90;;;;;;6306222;22;20511;-88
2023/03/25 01:47:02;;;;;;;13.03;3.80;;;9.50;99.90;;;;;;6304830;22;19918;-88
2023/03/25 01:49:46;;;;;;;12.00;3.70;;;8.90;99.90;;;;;;6306063;22;20478;-88
2023/03/25 01:52:30;;;;;;;;;;;8.90;99.90;;;;;;6305382;22;20343;-87
2023/03/25 01:58:17;;;;;;;12.07;3.50;;;8.90;99.90;;;;;;6307463;22;20020;-88
2023/03/25 02:01:02;;;;;;;15.03;3.90;;;8.40;99.90;;;;;;6304260;22;20051;-88
2023/03/25 02:03:45;;;;;;;14.40;3.50;;;9.60;99.90;;;;;;6305422;22;20381;-88
2023/03/25 02:06:31;;;;;;;12.13;3.83;;;10.00;99.90;;;;;;6307001;22;20018;-87
2023/03/25 02:09:24;;;;;;;13.20;3.87;;;8.60;99.90;;;;;;6307116;22;20072;-88
2023/03/25 02:12:00;;;;;;;13.90;3.27;;;9.40;99.90;;;;;;6305107;22;20023;-88
2023/03/25 02:14:39;;;;;;;13.53;2.90;;;8.50;99.90;;;;;;6322183;22;20049;-87
2023/03/25 02:17:45;;;;;;;13.43;3.27;;;9.20;99.90;;;;;;6310119;22;20015;-88
2023/03/25 02:21:07;;;;;;;11.97;2.67;;;8.50;99.90;;;;;;6309409;22;20014;-88
2023/03/25 02:24:34;;;;;;;10.23;2.57;;;8.50;99.90;;;;;;6338194;22;20015;-88
2023/03/25 02:27:45;;;;;;;13.93;3.13;;;8.60;99.90;;;;;;6338828;22;20010;-86
2023/03/25 02:30:28;;;;;;;17.93;3.03;;;7.70;99.90;;;;;;6306121;22;20114;-86
2023/03/25 02:33:23;;;;;;;13.73;3.33;;;8.20;99.90;;;;;;6300214;22;20039;-87
2023/03/25 02:39:30;;;;;;;13.37;3.20;;;8.00;99.90;;;;;;6311220;22;19914;-84
2023/03/25 02:42:32;;;;;;;13.57;3.30;;;7.90;99.90;;;;;;6283901;22;20432;-85
2023/03/25 02:45:34;;;;;;;14.60;3.40;;;7.30;99.90;;;;;;6201526;22;20023;-86
2023/03/25 02:48:44;;;;;;;15.10;3.37;;;7.90;99.90;;;;;;6306890;22;20069;-86
2023/03/25 02:51:51;;;;;;;13.10;3.60;;;7.50;99.90;;;;;;6212220;23;20016;-85
2023/03/25 02:54:23;;;;;;;17.03;3.70;;;8.10;99.90;;;;;;6212279;23;20056;-86
2023/03/25 02:57:06;;;;;;;17.63;3.87;;;8.80;99.90;;;;;;6211594;23;20039;-85
2023/03/25 02:59:45;;;;;;;13.63;3.47;;;8.60;99.90;;;;;;6186461;23;20507;-85
2023/03/25 03:02:18;;;;;;;13.90;3.37;;;8.20;99.90;;;;;;6211707;23;20067;-85
2023/03/25 03:04:50;;;;;;;15.88;3.67;;;8.20;99.90;;;;;;6186052;23;20015;-86
2023/03/25 03:07:28;;;;;;;13.57;3.97;;;9.20;99.90;;;;;;6186590;23;20023;-86
2023/03/25 03:10:35;;;;;;;15.10;2.97;;;8.40;99.90;;;;;;6211722;23;20160;-85
2023/03/25 03:13:41;;;;;;;16.20;3.67;;;7.90;99.90;;;;;;6187446;23;20021;-86
2023/03/25 03:16:41;;;;;;;13.33;3.40;;;7.90;99.90;;;;;;6185072;23;20017;-85
2023/03/25 03:19:51;;;;;;;15.87;3.07;;;7.90;99.90;;;;;;6185299;23;20076;-86
2023/03/25 03:23:00;;;;;;;14.93;3.73;;;8.50;99.90;;;;;;6224652;22;20016;-86
2023/03/25 03:26:00;;;;;;;15.60;3.97;;;7.90;99.90;;;;;;6310371;22;20019;-86
2023/03/25 03:29:03;;;;;;;13.97;3.20;;;7.70;99.90;;;;;;6340173;22;20010;-86
2023/03/25 03:32:05;;;;;;;16.23;3.57;;;8.10;99.90;;;;;;6290982;22;20320;-86
2023/03/25 03:34:45;;;;;;;14.37;3.27;;;8.00;99.90;;;;;;6250881;22;20451;-86
2023/03/25 03:37:42;;;;;;;17.57;3.27;;;9.00;99.90;;;;;;6277908;22;20019;-86
2023/03/25 03:40:15;;;;;;;16.07;3.20;;;8.20;99.90;;;;;;6271165;22;20019;-86
2023/03/25 03:43:20;;;;;;;11.48;3.00;;;9.40;99.90;;;;;;6306896;22;20022;-86
2023/03/25 03:45:53;;;;;;;14.17;3.33;;;8.20;99.90;;;;;;6273133;22;20049;-86
2023/03/25 03:48:47;;;;;;;15.65;3.03;;;9.50;99.90;;;;;;6312935;22;20318;-86
2023/03/25 03:51:28;;;;;;;10.70;3.00;;;8.20;99.90;;;;;;6307018;22;20447;-86
2023/03/25 03:53:57;;;;;;;13.27;3.10;;;9.30;99.90;;;;;;6307568;22;20474;-85
2023/03/25 03:56:40;;;;;;;15.20;3.77;;;9.40;99.90;;;;;;6308718;22;20069;-85
2023/03/25 03:59:34;;;;;;;13.63;2.87;;;8.00;99.90;;;;;;6307476;22;20062;-86
2023/03/25 04:02:22;;;;;;;;;;;8.20;99.90;;;;;;6308575;22;20447;-86
2023/03/25 04:04:52;;;;;;;14.17;3.40;;;8.10;99.90;;;;;;6317322;22;19915;-85
2023/03/25 04:07:40;;;;;;;13.97;3.10;;;8.80;99.90;;;;;;6306615;22;20019;-86
2023/03/25 04:10:40;;;;;;;12.87;3.07;;;8.60;99.90;;;;;;6310636;22;20054;-86
2023/03/25 04:13:30;;;;;;;12.67;2.97;;;8.70;99.90;;;;;;6322323;22;20034;-85
2023/03/25 04:16:08;;;;;;;13.90;3.50;;;9.10;99.90;;;;;;6307472;22;20152;-86
2023/03/25 04:18:38;;;;;;;13.60;3.27;;;8.10;99.90;;;;;;6308924;22;20011;-86
2023/03/25 04:21:08;;;;;;;15.93;3.23;;;9.50;99.90;;;;;;6306463;22;20034;-85
2023/03/25 04:23:36;;;;;;;11.30;3.30;;;8.00;99.90;;;;;;6308248;22;20382;-85
2023/03/25 04:26:12;;;;;;;9.83;3.17;;;9.30;99.90;;;;;;6306843;22;20440;-86
2023/03/25 04:28:58;;;;;;;12.60;3.50;;;9.60;99.90;;;;;;6305491;22;20011;-85
2023/03/25 04:31:32;;;;;;;11.23;3.20;;;8.60;99.90;;;;;;6308292;22;20090;-86
2023/03/25 04:37:18;;;;;;;14.93;3.80;;;8.00;99.90;;;;;;6307852;22;20019;-86
2023/03/25 04:42:47;;;;;;;12.53;3.60;;;7.90;99.90;;;;;;6334616;22;20027;-86
2023/03/25 04:45:27;;;;;;;12.57;3.50;;;6.90;99.90;;;;;;6305093;22;20031;-86
2023/03/25 04:47:59;;;;;;;11.17;3.50;;;7.80;99.90;;;;;;6305891;22;20026;-86
2023/03/25 04:50:31;;;;;;;13.63;3.83;;;7.70;99.90;;;;;;6307620;22;20011;-85
2023/03/25 04:53:12;;;;;;;13.83;3.40;;;8.80;99.90;;;;;;6306217;22;20026;-86
2023/03/25 04:55:46;;;;;;;13.37;3.80;;;8.70;99.90;;;;;;6305383;22;20514;-87
2023/03/25 04:58:25;;;;;;;;;;;8.90;99.90;;;;;;6306816;22;20317;-86
2023/03/25 05:01:10;;;;;;;12.77;3.60;;;7.80;99.90;;;;;;6305324;22;19911;-85
2023/03/25 05:03:49;;;;;;;13.63;3.87;;;8.70;99.90;;;;;;6306158;22;20403;-86
2023/03/25 05:07:02;;;;;;;14.13;4.30;;;8.50;99.90;;;;;;6306891;22;20068;-85
2023/03/25 05:09:40;;;;;;;14.93;3.90;;;7.70;99.90;;;;;;6212151;23;20020;-86
2023/03/25 05:12:11;;;;;;;15.63;4.00;;;9.00;99.90;;;;;;6301560;22;20015;-86
2023/03/25 05:14:57;;;;;;;16.20;4.40;;;8.80;99.90;;;;;;6308115;22;20022;-86
2023/03/25 05:17:38;;;;;;;15.57;4.67;;;7.30;99.90;;;;;;6313287;22;20043;-85
2023/03/25 05:20:13;;;;;;;16.47;4.90;;;6.90;99.90;;;;;;6313568;22;20037;-86
2023/03/25 05:22:40;;;;;;;15.57;4.80;;;7.20;99.90;;;;;;6305589;22;20011;-85
2023/03/25 05:25:10;;;;;;;16.47;4.83;;;9.30;99.90;;;;;;6305142;22;20393;-85
2023/03/25 05:27:58;;;;;;;17.30;5.10;;;8.80;99.90;;;;;;6307894;22;20019;-86
2023/03/25 05:30:31;;;;;;;15.80;5.40;;;8.50;99.90;;;;;;6306710;22;20064;-86
2023/03/25 05:33:24;;;;;;;14.90;5.37;;;9.00;99.90;;;;;;6304323;22;20015;-85
2023/03/25 05:36:40;;;;;;;14.23;5.50;;;7.70;99.90;;;;;;6314742;22;20435;-85
2023/03/25 05:39:07;;;;;;;15.47;5.60;;;7.30;99.90;;;;;;6306384;22;20055;-86
2023/03/25 05:41:45;;;;;;;17.43;5.70;;;7.70;99.90;;;;;;6309911;22;20026;-85
2023/03/25 05:44:23;;;;;;;17.47;6.00;;;8.50;99.90;;;;;;6315353;22;20007;-85
2023/03/25 05:47:04;;;;;;;15.70;6.03;;;7.60;99.90;;;;;;6307896;22;20063;-85
2023/03/25 05:51:58;;;;;;;17.83;6.20;;;7.70;99.90;;;;;;6308607;22;20030;-85
2023/03/25 05:54:24;;;;;;;18.10;6.50;;;8.10;99.90;;;;;;6306125;22;20011;-85
2023/03/25 05:56:56;;;;;;;16.70;5.43;;;7.50;99.90;;;;;;6306334;22;20051;-85
2023/03/25 05:59:44;;;;;;;16.87;5.60;;;8.70;99.90;;;;;;6306669;22;20015;-85
2023/03/25 06:02:32;;;;;;;18.77;6.37;;;8.20;99.90;;;;;;6305335;22;20054;-85
2023/03/25 06:04:58;;;;;;;14.23;5.10;;;8.70;99.90;;;;;;6305731;22;20026;-85
2023/03/25 06:07:44;;;;;;;14.20;5.07;;;7.50;99.90;;;;;;6307078;22;20015;-85
2023/03/25 06:10:28;;;;;;;12.93;4.57;;;9.00;99.90;;;;;;6305591;22;20011;-85
2023/03/25 06:12:54;;;;;;;16.17;4.90;;;7.20;99.90;;;;;;6305261;22;20019;-85
2023/03/25 06:15:38;;;;;;;15.33;4.43;;;9.30;99.90;;;;;;6307552;22;20015;-85
2023/03/25 06:18:25;;;;;;;12.67;4.30;;;8.50;99.90;;;;;;6318385;22;20043;-85
2023/03/25 06:21:07;;;;;;;11.27;3.80;;;7.90;99.90;;;;;;6314723;22;20027;-87
2023/03/25 06:23:34;;;;;;;11.80;3.30;;;7.80;99.90;;;;;;6308472;22;20039;-85
2023/03/25 06:26:20;;;;;;;13.10;3.40;;;7.80;99.90;;;;;;6306027;22;20378;-86
2023/03/25 06:29:02;;;;;;;12.60;3.43;;;8.50;99.90;;;;;;6306838;22;20003;-86
2023/03/25 06:31:32;;;;;;;12.47;3.27;;;7.60;99.90;;;;;;6305335;22;20019;-86
2023/03/25 06:34:00;;;;;;;10.03;2.87;;;8.50;99.90;;;;;;6306271;22;20007;-86
2023/03/25 06:36:39;;;;;;;13.20;3.00;;;7.60;99.90;;;;;;6272837;22;20016;-86
2023/03/25 06:39:25;;;;;;;11.53;2.70;;;7.40;99.90;;;;;;6247183;22;20012;-87
2023/03/25 06:41:51;;;;;;;10.57;2.50;;;7.80;99.90;;;;;;6246381;22;20522;-86
2023/03/25 06:44:16;;;;;;;10.73;2.80;;;7.60;99.90;;;;;;6273387;22;20027;-86
2023/03/25 06:46:52;;;;;;;9.63;2.50;;;7.60;99.90;;;;;;6273580;22;20019;-86
2023/03/25 06:49:26;;;;;;;10.43;2.53;;;7.60;99.90;;;;;;6273022;22;20020;-86
2023/03/25 06:52:17;;;;;;;9.73;2.50;;;7.50;99.90;;;;;;6272363;22;20027;-86
2023/03/25 06:54:57;;;;;;;12.10;2.77;;;7.40;99.90;;;;;;6273156;22;20023;-86
2023/03/25 06:57:42;;;;;;;13.00;3.03;;;7.50;99.90;;;;;;6273334;22;20011;-86
2023/03/25 07:00:10;;;;;;;11.13;2.87;;;7.40;99.90;;;;;;6273760;22;20463;-86
2023/03/25 07:02:46;;;;;;;11.53;2.70;;;7.40;99.90;;;;;;6274506;22;20376;-86
2023/03/25 07:05:12;;;;;;;11.07;2.70;;;7.50;99.90;;;;;;6247526;22;20155;-85
2023/03/25 07:07:38;;;;;;;14.77;3.20;;;7.60;99.90;;;;;;6290069;22;20019;-86
2023/03/25 07:10:04;;;;;;;13.20;3.17;;;7.60;99.90;;;;;;6310792;22;20015;-86
2023/03/25 07:12:47;;;;;;;14.63;3.13;;;7.70;99.90;;;;;;6309629;22;20012;-86
2023/03/25 07:15:18;;;;;;;14.90;3.50;;;7.80;99.90;;;;;;6315329;22;20011;-86
2023/03/25 07:18:06;;;;;;;11.27;3.20;;;7.80;99.90;;;;;;6308446;22;20020;-86
2023/03/25 07:20:32;;;;;;;14.10;3.30;;;7.30;99.90;;;;;;6307613;22;20021;-86
2023/03/25 07:23:19;;;;;;;14.43;3.23;;;8.10;99.90;;;;;;6308193;22;20051;-86
2023/03/25 07:25:45;;;;;;;13.97;3.43;;;8.10;99.90;;;;;;6309043;22;20431;-86
2023/03/25 07:28:10;;;;;;;16.43;3.70;;;8.20;99.90;;;;;;6308712;22;20018;-86
2023/03/25 07:30:44;;;;;;;13.90;3.80;;;8.30;99.90;;;;;;6305627;22;20011;-87
2023/03/25 07:33:27;;;;;;;15.73;3.63;;;8.40;99.90;;;;;;6308570;22;20038;-88
2023/03/25 07:35:59;;;;;;;14.88;4.15;;;8.60;99.90;;;;;;6307166;22;20012;-84
2023/03/25 07:38:24;;;;;;;12.73;3.87;;;8.50;99.90;;;;;;6306188;22;20438;-86
2023/03/25 07:40:50;;;;;;;15.57;4.03;;;8.70;99.90;;;;;;6308242;22;20086;-84
2023/03/25 07:43:29;;;;;;;15.67;4.97;;;8.80;99.90;;;;;;6306866;22;20019;-84
2023/03/25 07:45:54;;;;;;;16.97;4.00;;;8.90;99.90;;;;;;6306017;22;20016;-84
2023/03/25 07:48:21;;;;;;;16.37;4.50;;;8.80;99.90;;;;;;6306242;22;20042;-84
2023/03/25 07:50:51;;;;;;;14.53;4.30;;;8.80;99.90;;;;;;6307827;22;20095;-84
2023/03/25 07:53:17;;;;;;;16.07;5.07;;;8.70;99.90;;;;;;6306374;22;20095;-84
2023/03/25 07:55:44;;;;;;;15.37;4.00;;;8.60;99.90;;;;;;6306800;22;20026;-84
2023/03/25 07:58:10;;;;;;;18.90;6.47;;;8.50;99.90;;;;;;6307558;22;20015;-85
2023/03/25 08:00:36;;;;;;;18.70;3.97;;;8.40;99.90;;;;;;6306852;22;20011;-83
2023/03/25 08:03:02;;;;;;;17.60;4.63;;;8.30;99.90;;;;;;6305274;22;20015;-84
2023/03/25 08:05:28;;;;;;;18.10;4.23;;;8.30;99.90;;;;;;6305568;22;20102;-84
2023/03/25 08:07:54;;;;;;;18.60;4.33;;;8.20;99.90;;;;;;6306710;22;20064;-84
2023/03/25 08:10:20;;;;;;;26.23;4.73;;;8.20;99.90;;;;;;6306324;22;20018;-85
2023/03/25 08:12:46;;;;;;;13.63;4.47;;;8.30;99.90;;;;;;6305724;22;20332;-85
2023/03/25 08:15:12;;;;;;;17.20;6.33;;;8.30;99.90;;;;;;6306144;22;20023;-84
2023/03/25 08:17:39;;;;;;;18.87;4.50;;;8.20;99.90;;;;;;6306368;22;20044;-88
2023/03/25 08:20:14;;;;;;;13.83;4.70;;;8.30;99.90;;;;;;6304769;22;20019;-84
2023/03/25 08:22:42;;;;;;;17.47;5.97;;;8.40;99.90;;;;;;6312197;22;20094;-84
2023/03/25 08:25:08;;;;;;;17.90;3.90;;;8.60;99.90;;;;;;6308356;22;20011;-84
2023/03/25 08:27:34;;;;;;;16.13;3.47;;;8.70;99.90;;;;;;6305891;22;20046;-84
2023/03/25 08:29:59;;;;;;;16.87;3.13;;;8.80;99.90;;;;;;6306304;22;20443;-84
2023/03/25 08:32:27;;;;;;;14.17;3.97;;;8.90;99.90;;;;;;6306280;22;20160;-85
2023/03/25 08:34:53;;;;;;;14.60;2.90;;;9.00;99.90;;;;;;6305211;22;20015;-85
2023/03/25 08:37:20;;;;;;;15.17;3.63;;;9.00;99.90;;;;;;6305983;22;20023;-84
2023/03/25 08:39:49;;;;;;;21.43;3.77;;;9.20;99.90;;;;;;6314420;22;20069;-85
2023/03/25 08:42:15;;;;;;;14.97;2.90;;;9.20;99.90;;;;;;6306855;22;20011;-85
2023/03/25 08:44:41;;;;;;;12.10;3.00;;;9.20;99.90;;;;;;6306350;22;20448;-81
2023/03/25 08:47:07;;;;;;;13.03;3.67;;;9.10;99.90;;;;;;6310835;22;20175;-84
2023/03/25 08:49:32;;;;;;;19.88;4.47;;;9.10;99.90;;;;;;6307889;22;20016;-82
2023/03/25 08:52:00;;;;;;;11.80;3.67;;;8.90;99.90;;;;;;6305929;22;20026;-83
2023/03/25 08:54:26;;;;;;;17.83;5.03;;;8.80;99.90;;;;;;6305530;22;20019;-82
2023/03/25 08:56:52;;;;;;;17.23;4.73;;;8.80;99.90;;;;;;6306431;22;20094;-81
2023/03/25 08:59:18;;;;;;;14.10;3.72;;;8.70;99.90;;;;;;6307591;22;20019;-82
2023/03/25 09:01:44;;;;;;;13.33;2.90;;;8.60;99.90;;;;;;6304985;22;20019;-82
2023/03/25 09:04:15;;;;;;;14.07;3.23;;;8.50;99.90;;;;;;6307393;22;20019;-83
2023/03/25 09:06:48;;;;;;;22.03;6.40;;;8.60;99.90;;;;;;6306117;22;20019;-82
2023/03/25 09:09:15;;;;;;;16.33;3.97;;;8.60;99.90;;;;;;6306610;22;20012;-82
2023/03/25 09:11:46;;;;;;;13.93;3.90;;;8.60;99.90;;;;;;6306035;22;20030;-82
2023/03/25 09:14:27;;;;;;;15.40;4.80;;;9.40;99.90;;;;;;6306898;22;20459;-82
2023/03/25 09:17:09;;;;;;;12.90;3.60;;;8.70;99.90;;;;;;6304883;22;20019;-83
2023/03/25 09:19:53;;;;;;;19.17;5.07;;;9.00;99.90;;;;;;6305849;22;20015;-82
2023/03/25 09:22:37;;;;;;;;;;;9.10;99.90;;;;;;6306987;22;20069;-82
2023/03/25 09:25:05;;;;;;;15.03;3.93;;;9.10;99.90;;;;;;6308346;22;20285;-82
2023/03/25 09:27:49;;;;;;;17.40;4.30;;;9.10;99.90;;;;;;6307313;22;20026;-82
2023/03/25 09:30:31;;;;;;;16.60;3.80;;;9.00;99.90;;;;;;6304472;22;20438;-82
2023/03/25 09:32:56;;;;;;;13.43;3.80;;;9.10;99.90;;;;;;6307232;22;20018;-83
2023/03/25 09:35:31;;;;;;;16.88;4.95;;;9.00;99.90;;;;;;6305275;22;20030;-83
2023/03/25 09:38:03;;;;;;;17.83;4.03;;;8.80;99.90;;;;;;6307046;22;20020;-82
2023/03/25 09:40:41;;;;;;;14.33;3.23;;;8.60;99.90;;;;;;6305174;22;20023;-85
2023/03/25 09:46:39;;;;;;;17.47;5.03;;;8.80;99.90;;;;;;6305724;22;20015;-83
2023/03/25 09:49:21;;;;;;;14.30;4.85;;;8.00;99.90;;;;;;6305386;22;20030;-85
2023/03/25 09:52:03;;;;;;;14.70;4.50;;;10.60;99.90;;;;;;6303992;22;20423;-83
2023/03/25 09:54:51;;;;;;;13.02;3.80;;;11.00;99.90;;;;;;6315682;22;20043;-85
2023/03/25 09:57:30;;;;;;;17.50;3.30;;;10.90;99.90;;;;;;6305958;22;20595;-85
2023/03/25 10:00:21;;;;;;;13.70;3.43;;;9.80;99.90;;;;;;6305673;22;20050;-85
2023/03/25 10:03:09;;;;;;;17.00;3.85;;;9.60;99.90;;;;;;6305283;22;20015;-85
2023/03/25 10:05:45;;;;;;;15.27;3.53;;;9.50;99.90;;;;;;6304848;22;20019;-84
2023/03/25 10:08:17;;;;;;;15.55;3.22;;;9.50;99.90;;;;;;6307341;22;20080;-85
2023/03/25 10:11:02;;;;;;;15.13;3.00;;;9.30;99.90;;;;;;6310328;22;20024;-84
2023/03/25 10:13:55;;;;;;;13.38;3.30;;;9.30;99.90;;;;;;6307223;22;20065;-85
2023/03/25 10:16:44;;;;;;;14.27;3.27;;;9.40;99.90;;;;;;6303770;22;20045;-84
2023/03/25 10:19:25;;;;;;;10.07;3.00;;;9.50;99.90;;;;;;6310718;22;20015;-85
2023/03/25 10:21:54;;;;;;;14.48;3.72;;;9.70;99.90;;;;;;6305507;22;20015;-85
2023/03/25 10:24:34;;;;;;;14.90;3.33;;;9.80;99.90;;;;;;6306718;22;20071;-85
2023/03/25 10:27:22;;;;;;;12.38;3.22;;;9.50;99.90;;;;;;6305398;22;20015;-86
2023/03/25 10:30:10;;;;;;;17.90;3.42;;;9.50;99.90;;;;;;6304909;22;20126;-85
2023/03/25 10:32:40;;;;;;;15.30;3.55;;;9.40;99.90;;;;;;6306325;22;20016;-85
2023/03/25 10:35:24;;;;;;;14.52;2.95;;;9.30;99.90;;;;;;6306977;22;20031;-85
2023/03/25 10:38:12;;;;;;;15.80;3.00;;;9.20;99.90;;;;;;6307382;22;20042;-85
2023/03/25 10:41:02;;;;;;;16.00;3.50;;;9.60;99.90;;;;;;6307440;22;20022;-83
2023/03/25 10:43:35;;;;;;;16.20;3.70;;;8.80;99.90;;;;;;6307333;22;20026;-82
2023/03/25 10:46:18;;;;;;;14.33;3.80;;;8.70;99.90;;;;;;6307246;22;20011;-83
2023/03/25 10:48:56;;;;;;;18.67;3.87;;;8.50;99.90;;;;;;6304196;22;20329;-83
2023/03/25 10:51:49;;;;;;;19.83;3.97;;;9.60;99.90;;;;;;6307078;22;20042;-83
2023/03/25 10:54:19;;;;;;;16.40;3.27;;;8.80;99.90;;;;;;6305552;22;20822;-83
2023/03/25 10:56:54;;;;;;;18.30;3.37;;;9.80;99.90;;;;;;6307609;22;20034;-83
2023/03/25 10:59:28;;;;;;;15.63;3.13;;;8.80;99.90;;;;;;6307127;22;20324;-83
2023/03/25 11:01:56;;;;;;;17.43;3.20;;;8.80;99.90;;;;;;6308268;22;20011;-83
2023/03/25 11:04:38;;;;;;;21.48;4.30;;;8.90;99.90;;;;;;6307530;22;20350;-83
2023/03/25 11:07:47;;;;;;;15.18;3.63;;;9.00;99.90;;;;;;6307079;22;20022;-83
2023/03/25 11:10:16;;;;;;;16.00;3.90;;;9.30;99.90;;;;;;6288160;22;20019;-83
2023/03/25 11:12:44;;;;;;;16.87;3.50;;;10.40;99.90;;;;;;6307619;22;20019;-85
2023/03/25 11:15:25;;;;;;;15.60;3.00;;;10.30;99.90;;;;;;6308431;22;20010;-83
2023/03/25 11:18:23;;;;;;;16.40;3.58;;;9.40;99.90;;;;;;6307010;22;20019;-83
2023/03/25 11:20:54;;;;;;;17.05;3.63;;;9.40;99.90;;;;;;6301924;22;20343;-83
2023/03/25 11:23:41;;;;;;;13.95;3.00;;;9.70;99.90;;;;;;6307100;22;20078;-83
2023/03/25 11:26:37;;;;;;;12.68;3.60;;;9.00;99.90;;;;;;6308565;22;20019;-84
2023/03/25 11:29:05;;;;;;;21.17;3.67;;;8.90;99.90;;;;;;6305383;22;20038;-84
2023/03/25 11:31:36;;;;;;;13.20;3.03;;;9.50;99.90;;;;;;6306891;22;20026;-83
2023/03/25 11:34:11;;;;;;;19.47;3.00;;;8.90;99.90;;;;;;6306415;22;20347;-84
2023/03/25 11:39:22;;;;;;;17.97;3.10;;;9.10;99.90;;;;;;6308844;22;20036;-84
2023/03/25 11:44:58;;;;;;;16.23;3.28;;;9.80;99.90;;;;;;6308558;22;20023;-83
2023/03/25 11:47:49;;;;;;;29.48;11.40;;;11.50;99.90;;;;;;6308032;22;20021;-83
2023/03/25 11:50:43;;;;;;;34.63;18.40;;;9.70;99.90;;;;;;6310723;22;20451;-83
2023/03/25 11:53:15;;;;;;;18.40;5.50;;;10.30;99.90;;;;;;6308679;22;20018;-84
2023/03/25 11:56:06;;;;;;;15.88;4.60;;;10.70;99.90;;;;;;6306247;22;20007;-82
2023/03/25 11:58:49;;;;;;;20.23;4.55;;;10.60;99.90;;;;;;6306794;22;20025;-81
2023/03/25 12:01:26;;;;;;;15.63;3.60;;;11.40;99.90;;;;;;6305854;22;20394;-82
2023/03/25 12:04:20;;;;;;;19.23;5.75;;;10.80;99.90;;;;;;6301804;22;20015;-82
2023/03/25 12:07:14;;;;;;;18.13;4.80;;;11.60;99.90;;;;;;6308173;22;20439;-81
2023/03/25 12:09:54;;;;;;;21.83;8.15;;;11.60;99.90;;;;;;6305357;22;20082;-82
2023/03/25 12:12:31;;;;;;;18.27;5.93;;;10.30;99.90;;;;;;6305347;22;20069;-85
2023/03/25 12:15:07;;;;;;;14.27;3.13;;;10.40;99.90;;;;;;6306121;22;20012;-82
2023/03/25 12:17:55;;;;;;;14.20;4.30;;;10.50;99.90;;;;;;6306389;22;20054;-84
2023/03/25 12:20:51;;;;;;;12.73;3.45;;;10.50;99.90;;;;;;6305097;22;20023;-82
2023/03/25 12:23:53;;;;;;;12.00;3.03;;;11.60;99.90;;;;;;6307884;22;20491;-83
2023/03/25 12:27:13;;;;;;;13.85;2.90;;;10.90;99.90;;;;;;6305625;22;20072;-84
2023/03/25 12:30:32;;;;;;;14.52;3.55;;;11.10;99.90;;;;;;6332713;22;19999;-82
2023/03/25 12:33:00;;;;;;;21.23;3.63;;;11.10;99.90;;;;;;6306682;22;20060;-83
2023/03/25 12:35:59;;;;;;;15.90;3.65;;;10.90;99.90;;;;;;6306791;22;20090;-83
2023/03/25 12:41:48;;;;;;;16.17;3.60;;;10.80;99.90;;;;;;6305458;22;20027;-83
2023/03/25 12:44:39;;;;;;;14.20;4.90;;;10.60;99.90;;;;;;6304352;22;20439;-82
2023/03/25 12:47:35;;;;;;;16.35;5.95;;;10.70;99.90;;;;;;6304450;22;20027;-82
2023/03/25 12:50:48;;;;;;;12.80;4.20;;;10.20;99.90;;;;;;6305476;22;20097;-85
2023/03/25 12:53:38;;;;;;;16.98;5.45;;;10.50;99.90;;;;;;6309803;22;20077;-83
2023/03/25 12:56:54;;;;;;;15.85;7.15;;;11.90;99.90;;;;;;6314110;22;20022;-83
2023/03/25 12:59:54;;;;;;;15.30;5.78;;;10.20;99.90;;;;;;6188212;23;20060;-83
2023/03/25 13:02:59;;;;;;;14.82;3.20;;;10.70;99.90;;;;;;6211671;23;20020;-82
2023/03/25 13:05:39;;;;;;;12.00;2.95;;;10.70;99.90;;;;;;6188157;23;20027;-82
2023/03/25 13:08:18;;;;;;;16.05;3.60;;;11.80;99.90;;;;;;6291383;22;20014;-83
2023/03/25 13:10:52;;;;;;;14.52;3.58;;;10.70;99.90;;;;;;6306530;22;20015;-82
2023/03/25 13:13:23;;;;;;;11.70;2.70;;;11.10;99.90;;;;;;6309356;22;20162;-82
2023/03/25 13:16:13;;;;;;;12.68;2.90;;;10.70;99.90;;;;;;6308056;22;20014;-83
2023/03/25 13:18:47;;;;;;;12.77;2.78;;;10.70;99.90;;;;;;6306275;22;20455;-82
2023/03/25 13:21:53;;;;;;;13.20;3.03;;;10.80;99.90;;;;;;6309305;22;20446;-83
2023/03/25 13:24:38;;;;;;;13.05;3.05;;;11.30;99.90;;;;;;6188308;23;20021;-82
2023/03/25 13:27:05;;;;;;;16.75;3.15;;;11.60;99.90;;;;;;6296647;22;20073;-82
2023/03/25 13:29:37;;;;;;;11.68;1.90;;;12.40;99.90;;;;;;6305026;22;20011;-82
2023/03/25 13:32:39;;;;;;;12.43;2.53;;;12.00;99.90;;;;;;6307221;22;20015;-82
2023/03/25 13:35:19;;;;;;;12.13;2.60;;;11.40;99.90;;;;;;6306993;22;20447;-82
2023/03/25 13:37:58;;;;;;;14.80;3.95;;;11.20;99.90;;;;;;6306698;22;20494;-82
2023/03/25 13:40:31;;;;;;;13.57;3.28;;;11.10;99.90;;;;;;6305981;22;20015;-82
2023/03/25 13:43:14;;;;;;;54.10;28.63;;;11.30;99.90;;;;;;6306006;22;20343;-82
2023/03/25 13:46:06;;;;;;;14.32;5.32;;;11.40;99.90;;;;;;6305843;22;20026;-82
2023/03/25 13:48:45;;;;;;;14.07;3.05;;;11.50;99.90;;;;;;6306509;22;20022;-82
2023/03/25 13:51:11;;;;;;;14.90;2.90;;;11.40;99.90;;;;;;6304205;22;20023;-82
2023/03/25 13:53:47;;;;;;;14.18;2.53;;;12.10;99.90;;;;;;6307380;22;20064;-82
2023/03/25 13:56:55;;;;;;;12.35;2.33;;;11.50;99.90;;;;;;6306954;22;20530;-82
2023/03/25 13:59:27;;;;;;;11.60;2.40;;;11.90;99.90;;;;;;6305782;22;20339;-83
2023/03/25 14:02:20;;;;;;;10.95;2.25;;;12.10;99.90;;;;;;6305617;22;20027;-82
2023/03/25 14:05:29;;;;;;;11.75;2.60;;;12.20;99.90;;;;;;6306353;22;20019;-81
2023/03/25 14:08:13;;;;;;;13.93;2.83;;;12.10;99.90;;;;;;6305344;22;20348;-82
2023/03/25 14:10:45;;;;;;;;;;;12.20;99.90;;;;;;6305442;22;20022;-82
2023/03/25 14:13:16;;;;;;;9.20;2.40;;;11.80;99.90;;;;;;6305294;22;19980;-82
2023/03/25 14:15:57;;;;;;;15.80;3.00;;;11.60;99.90;;;;;;6307393;22;20046;-82
2023/03/25 14:18:23;;;;;;;12.73;2.55;;;11.50;99.90;;;;;;6304494;22;20015;-82
2023/03/25 14:20:50;;;;;;;10.05;2.40;;;12.40;99.90;;;;;;6305325;22;20027;-82
2023/03/25 14:23:21;;;;;;;12.85;2.70;;;11.40;99.90;;;;;;6304988;22;20339;-82
2023/03/25 14:25:52;;;;;;;10.55;2.70;;;11.60;99.90;;;;;;6313921;22;20019;-82
2023/03/25 14:28:32;;;;;;;14.48;2.45;;;11.30;99.90;;;;;;6308331;22;20016;-82
2023/03/25 14:31:21;;;;;;;12.68;2.75;;;11.50;99.90;;;;;;6305202;22;20455;-82